createdAt,value
2019-05-28T00:01:23.337Z,99.90
2019-05-28T00:03:53.639Z,99.90
2019-05-28T00:06:24.843Z,99.90
2019-05-28T00:08:54.815Z,99.90
2019-05-28T00:11:25.861Z,99.90
2019-05-28T00:13:56.018Z,99.90
2019-05-28T00:16:26.033Z,99.90
2019-05-28T00:18:56.244Z,99.90
2019-05-28T00:21:26.354Z,99.90
2019-05-28T00:23:56.423Z,99.90
2019-05-28T00:26:26.513Z,99.90
2019-05-28T00:28:57.997Z,99.90
2019-05-28T00:31:29.108Z,99.90
2019-05-28T00:33:59.689Z,99.90
2019-05-28T00:36:29.851Z,99.90
2019-05-28T00:38:59.995Z,99.90
2019-05-28T00:41:30.255Z,99.90
2019-05-28T00:44:00.412Z,99.90
2019-05-28T00:46:30.475Z,99.90
2019-05-28T00:49:01.337Z,99.90
2019-05-28T00:51:32.139Z,99.90
2019-05-28T00:54:03.550Z,99.90
2019-05-28T00:56:33.818Z,99.90
2019-05-28T00:59:04.595Z,99.90
2019-05-28T01:01:34.718Z,99.90
2019-05-28T01:04:05.006Z,99.90
2019-05-28T01:06:35.159Z,99.90
2019-05-28T01:09:07.940Z,99.90
2019-05-28T01:11:38.032Z,99.90
2019-05-28T01:14:10.927Z,99.90
2019-05-28T01:16:41.018Z,99.90
2019-05-28T01:19:11.179Z,99.90
2019-05-28T01:21:42.654Z,99.90
2019-05-28T01:24:13.200Z,99.90
2019-05-28T01:26:43.362Z,99.90
2019-05-28T01:29:13.620Z,99.90
2019-05-28T01:31:44.162Z,99.90
2019-05-28T01:34:14.371Z,99.90
2019-05-28T01:36:44.417Z,99.90
2019-05-28T01:39:14.450Z,99.90
2019-05-28T01:41:44.828Z,99.90
2019-05-28T01:44:14.984Z,99.90
2019-05-28T01:46:45.128Z,99.90
2019-05-28T01:49:15.187Z,99.90
2019-05-28T01:51:45.602Z,99.90
2019-05-28T01:54:15.699Z,99.90
2019-05-28T01:56:45.694Z,99.90
2019-05-28T01:59:15.688Z,99.90
2019-05-28T02:01:45.830Z,99.90
2019-05-28T02:04:17.274Z,99.90
2019-05-28T02:06:47.407Z,99.90
2019-05-28T02:09:18.657Z,99.90
2019-05-28T02:11:48.836Z,99.90
2019-05-28T02:14:18.871Z,99.90
2019-05-28T02:16:48.940Z,99.90
2019-05-28T02:19:19.029Z,99.90
2019-05-28T02:21:49.111Z,99.90
2019-05-28T02:24:19.384Z,99.90
2019-05-28T02:26:49.715Z,99.90
2019-05-28T02:29:19.728Z,99.90
2019-05-28T02:31:49.759Z,99.90
2019-05-28T02:34:19.954Z,99.90
2019-05-28T02:36:50.110Z,99.90
2019-05-28T02:39:20.260Z,99.90
2019-05-28T02:41:50.434Z,99.90
2019-05-28T02:44:20.572Z,99.90
2019-05-28T02:46:50.663Z,99.90
2019-05-28T02:49:20.888Z,99.90
2019-05-28T02:51:51.346Z,99.90
2019-05-28T02:54:22.787Z,99.90
2019-05-28T02:56:53.783Z,99.90
2019-05-28T02:59:25.892Z,99.90
2019-05-28T03:01:57.612Z,99.90
2019-05-28T03:04:30.366Z,99.90
2019-05-28T03:07:03.008Z,99.90
2019-05-28T03:09:34.854Z,99.90
2019-05-28T03:12:05.101Z,99.90
2019-05-28T03:14:35.313Z,99.90
2019-05-28T03:17:06.072Z,99.90
2019-05-28T03:19:38.665Z,99.90
2019-05-28T03:22:10.853Z,99.90
2019-05-28T03:24:44.131Z,99.90
2019-05-28T03:27:14.295Z,99.90
2019-05-28T03:29:44.646Z,99.90
2019-05-28T03:32:14.907Z,99.90
2019-05-28T03:34:44.852Z,99.90
2019-05-28T03:37:15.879Z,99.90
2019-05-28T03:39:49.192Z,99.90
2019-05-28T03:42:19.237Z,99.90
2019-05-28T03:44:49.255Z,99.90
2019-05-28T03:47:19.254Z,99.90
2019-05-28T03:49:49.355Z,99.90
2019-05-28T03:52:19.622Z,99.90
2019-05-28T03:54:49.703Z,99.90
2019-05-28T03:57:19.982Z,99.90
2019-05-28T03:59:50.255Z,99.90
2019-05-28T04:02:23.715Z,99.90
2019-05-28T04:04:52.116Z,99.90
2019-05-28T04:07:22.230Z,99.90
2019-05-28T04:09:52.432Z,99.90
2019-05-28T04:12:22.441Z,99.90
2019-05-28T04:14:52.577Z,99.90
2019-05-28T04:17:22.913Z,99.90
2019-05-28T04:19:53.047Z,99.90
2019-05-28T04:22:23.069Z,99.90
2019-05-28T04:24:54.236Z,99.90
2019-05-28T04:27:24.210Z,99.90
2019-05-28T04:29:54.197Z,99.90
2019-05-28T04:32:39.274Z,99.90
2019-05-28T04:34:56.183Z,99.90
2019-05-28T04:37:26.245Z,99.90
2019-05-28T04:39:56.281Z,99.90
2019-05-28T04:42:26.300Z,99.90
2019-05-28T04:44:56.532Z,99.90
2019-05-28T04:47:26.607Z,99.90
2019-05-28T04:49:56.775Z,99.90
2019-05-28T04:52:30.388Z,99.90
2019-05-28T04:54:58.698Z,99.90
2019-05-28T04:57:28.825Z,99.90
2019-05-28T04:59:58.819Z,99.90
2019-05-28T05:02:28.955Z,99.90
2019-05-28T05:04:59.007Z,99.90
2019-05-28T05:07:29.401Z,99.90
2019-05-28T05:09:59.588Z,99.90
2019-05-28T05:12:29.680Z,99.90
2019-05-28T05:14:59.871Z,99.90
2019-05-28T05:17:29.979Z,99.90
2019-05-28T05:20:00.128Z,99.90
2019-05-28T05:22:30.155Z,99.90
2019-05-28T05:25:00.270Z,99.90
2019-05-28T05:27:30.460Z,99.90
2019-05-28T05:30:02.649Z,99.90
2019-05-28T05:32:32.712Z,99.90
2019-05-28T05:35:02.927Z,99.90
2019-05-28T05:37:34.168Z,99.90
2019-05-28T05:40:05.118Z,99.90
2019-05-28T05:42:35.667Z,99.90
2019-05-28T05:45:07.617Z,99.90
2019-05-28T05:47:38.251Z,99.90
2019-05-28T05:50:09.248Z,99.90
2019-05-28T05:52:39.423Z,99.90
2019-05-28T05:55:10.690Z,99.90
2019-05-28T05:57:40.892Z,99.90
2019-05-28T06:00:11.914Z,99.90
2019-05-28T06:02:42.141Z,99.90
2019-05-28T06:05:12.706Z,99.90
2019-05-28T06:07:42.875Z,99.90
2019-05-28T06:10:13.677Z,99.90
2019-05-28T06:12:43.707Z,99.90
2019-05-28T06:15:14.002Z,99.90
2019-05-28T06:17:44.067Z,99.90
2019-05-28T06:20:15.300Z,99.90
2019-05-28T06:22:45.326Z,99.90
2019-05-28T06:25:17.152Z,99.90
2019-05-28T06:27:47.334Z,99.90
2019-05-28T06:30:17.704Z,99.90
2019-05-28T06:32:47.960Z,99.90
2019-05-28T06:35:18.096Z,99.90
2019-05-28T06:37:48.182Z,99.90
2019-05-28T06:40:19.526Z,99.90
2019-05-28T06:42:51.336Z,99.90
2019-05-28T06:45:21.868Z,99.90
2019-05-28T06:47:51.932Z,99.90
2019-05-28T06:50:23.058Z,99.90
2019-05-28T06:52:53.220Z,99.90
2019-05-28T06:55:23.262Z,99.90
2019-05-28T06:57:53.402Z,99.90
2019-05-28T07:00:23.548Z,99.90
2019-05-28T07:02:53.547Z,99.90
2019-05-28T07:05:23.637Z,99.90
2019-05-28T07:07:53.807Z,99.90
2019-05-28T07:10:24.612Z,99.90
2019-05-28T07:12:54.803Z,99.90
2019-05-28T07:15:24.960Z,99.90
2019-05-28T07:17:55.221Z,99.90
2019-05-28T07:20:25.416Z,99.90
2019-05-28T07:22:55.487Z,99.90
2019-05-28T07:25:25.713Z,99.90
2019-05-28T07:28:10.376Z,99.90
2019-05-28T07:30:27.796Z,99.90
2019-05-28T07:32:58.010Z,99.90
2019-05-28T07:35:42.623Z,99.90
2019-05-28T07:37:59.739Z,99.90
2019-05-28T07:40:32.034Z,99.90
2019-05-28T07:43:01.894Z,99.90
2019-05-28T07:45:31.983Z,99.90
2019-05-28T07:48:02.009Z,99.90
2019-05-28T07:50:32.409Z,99.90
2019-05-28T07:53:02.639Z,99.90
2019-05-28T07:55:32.734Z,99.90
2019-05-28T07:58:02.940Z,99.90
2019-05-28T08:00:38.871Z,99.90
2019-05-28T08:03:10.038Z,99.90
2019-05-28T08:05:40.253Z,99.90
2019-05-28T08:08:12.948Z,99.90
2019-05-28T08:10:43.592Z,99.90
2019-05-28T08:13:13.880Z,99.90
2019-05-28T08:15:44.166Z,99.90
2019-05-28T08:18:14.337Z,99.90
2019-05-28T08:20:44.552Z,99.90
2019-05-28T08:23:14.898Z,99.90
2019-05-28T08:25:47.365Z,99.90
2019-05-28T08:28:20.406Z,99.90
2019-05-28T08:30:49.024Z,99.90
2019-05-28T08:33:19.210Z,99.90
2019-05-28T08:35:51.530Z,99.90
2019-05-28T08:38:21.041Z,99.90
2019-05-28T08:40:51.261Z,99.90
2019-05-28T08:43:22.074Z,99.90
2019-05-28T08:45:52.255Z,99.90
2019-05-28T08:48:22.565Z,99.90
2019-05-28T08:50:52.808Z,99.90
2019-05-28T08:53:22.989Z,99.90
2019-05-28T08:55:53.268Z,99.90
2019-05-28T08:58:23.572Z,99.90
2019-05-28T09:00:54.425Z,99.90
2019-05-28T09:03:25.100Z,99.90
2019-05-28T09:05:55.805Z,99.30
2019-05-28T09:08:38.744Z,99.50
2019-05-28T09:10:58.722Z,99.90
2019-05-28T09:13:31.825Z,98.80
2019-05-28T09:16:02.400Z,99.30
2019-05-28T09:18:33.099Z,99.50
2019-05-28T09:21:05.382Z,98.00
2019-05-28T09:23:37.000Z,98.60
2019-05-28T09:26:08.867Z,97.70
2019-05-28T09:28:39.600Z,98.20
2019-05-28T09:31:10.441Z,96.90
2019-05-28T09:33:41.655Z,97.50
2019-05-28T09:36:12.330Z,96.30
2019-05-28T09:38:43.369Z,96.60
2019-05-28T09:41:13.805Z,96.20
2019-05-28T09:43:45.104Z,95.10
2019-05-28T09:46:17.066Z,95.90
2019-05-28T09:48:47.443Z,95.60
2019-05-28T09:51:18.109Z,95.90
2019-05-28T09:53:48.210Z,96.00
2019-05-28T09:56:18.266Z,96.00
2019-05-28T09:58:49.815Z,96.20
2019-05-28T10:01:19.991Z,96.80
2019-05-28T10:03:49.993Z,95.80
2019-05-28T10:06:20.078Z,95.30
2019-05-28T10:08:50.254Z,94.60
2019-05-28T10:11:20.310Z,95.30
2019-05-28T10:13:50.591Z,94.80
2019-05-28T10:16:20.761Z,95.00
2019-05-28T10:18:50.796Z,95.00
2019-05-28T10:21:20.982Z,94.60
2019-05-28T10:23:51.260Z,95.60
2019-05-28T10:26:21.577Z,92.70
2019-05-28T10:28:51.673Z,94.30
2019-05-28T10:31:22.850Z,93.70
2019-05-28T10:33:52.959Z,93.60
2019-05-28T10:36:35.073Z,94.30
2019-05-28T10:38:54.987Z,93.40
2019-05-28T10:41:25.202Z,91.90
2019-05-28T10:43:55.956Z,91.80
2019-05-28T10:46:26.078Z,92.30
2019-05-28T10:48:56.086Z,92.40
2019-05-28T10:51:26.157Z,92.30
2019-05-28T10:53:56.484Z,90.70
2019-05-28T10:56:26.781Z,89.10
2019-05-28T10:58:56.975Z,89.00
2019-05-28T11:01:26.969Z,89.80
2019-05-28T11:03:56.948Z,90.20
2019-05-28T11:06:26.965Z,89.30
2019-05-28T11:08:57.141Z,89.40
2019-05-28T11:11:27.249Z,90.70
2019-05-28T11:13:57.301Z,90.80
2019-05-28T11:16:27.336Z,90.40
2019-05-28T11:18:57.447Z,89.40
2019-05-28T11:21:27.344Z,90.50
2019-05-28T11:23:57.533Z,88.90
2019-05-28T11:26:27.685Z,89.00
2019-05-28T11:28:57.804Z,90.00
2019-05-28T11:31:27.991Z,88.80
2019-05-28T11:33:58.117Z,89.10
2019-05-28T11:36:28.229Z,86.80
2019-05-28T11:38:58.382Z,88.40
2019-05-28T11:41:41.597Z,87.90
2019-05-28T11:44:00.284Z,90.00
2019-05-28T11:46:30.385Z,91.10
2019-05-28T11:49:00.416Z,91.60
2019-05-28T11:51:30.697Z,93.10
2019-05-28T11:54:00.920Z,95.40
2019-05-28T11:56:31.317Z,96.00
2019-05-28T11:59:01.405Z,98.10
2019-05-28T12:01:35.095Z,98.30
2019-05-28T12:04:03.676Z,99.90
2019-05-28T12:06:38.099Z,99.90
2019-05-28T12:09:08.328Z,99.90
2019-05-28T12:11:38.367Z,99.90
2019-05-28T12:14:08.785Z,99.90
2019-05-28T12:16:39.000Z,99.90
2019-05-28T12:19:09.400Z,99.90
2019-05-28T12:21:39.428Z,99.90
2019-05-28T12:24:09.848Z,99.90
2019-05-28T12:26:40.020Z,99.90
2019-05-28T12:29:10.209Z,99.90
2019-05-28T12:31:40.486Z,99.90
2019-05-28T12:34:10.680Z,99.90
2019-05-28T12:36:40.908Z,99.90
2019-05-28T12:39:11.189Z,99.90
2019-05-28T12:41:59.097Z,99.90
2019-05-28T12:44:17.560Z,99.90
2019-05-28T12:46:47.727Z,99.90
2019-05-28T12:49:17.777Z,99.90
2019-05-28T12:51:47.954Z,99.90
2019-05-28T12:54:18.104Z,99.90
2019-05-28T12:56:48.272Z,99.90
2019-05-28T12:59:18.771Z,99.90
2019-05-28T13:01:49.042Z,99.90
2019-05-28T13:04:19.366Z,99.90
2019-05-28T13:06:49.686Z,99.90
2019-05-28T13:09:19.800Z,99.90
2019-05-28T13:11:50.320Z,99.90
2019-05-28T13:14:20.544Z,99.90
2019-05-28T13:16:50.659Z,99.90
2019-05-28T13:19:20.726Z,99.90
2019-05-28T13:21:53.911Z,99.90
2019-05-28T13:24:23.910Z,99.90
2019-05-28T13:26:54.052Z,99.90
2019-05-28T13:29:24.348Z,99.90
2019-05-28T13:31:54.615Z,99.90
2019-05-28T13:34:24.920Z,99.90
2019-05-28T13:36:55.613Z,99.90
2019-05-28T13:39:25.823Z,99.90
2019-05-28T13:41:56.086Z,99.90
2019-05-28T13:44:26.188Z,99.90
2019-05-28T13:46:56.231Z,99.90
2019-05-28T13:49:26.416Z,99.90
2019-05-28T13:52:11.009Z,99.90
2019-05-28T13:54:28.646Z,99.90
2019-05-28T13:56:58.839Z,99.90
2019-05-28T13:59:28.898Z,99.90
2019-05-28T14:01:59.024Z,99.90
2019-05-28T14:04:29.018Z,99.90
2019-05-28T14:06:59.339Z,99.90
2019-05-28T14:09:29.579Z,99.90
2019-05-28T14:11:59.744Z,99.90
2019-05-28T14:14:31.071Z,99.90
2019-05-28T14:17:01.286Z,99.90
2019-05-28T14:19:39.100Z,99.90
2019-05-28T14:22:09.425Z,99.90
2019-05-28T14:24:40.032Z,99.90
2019-05-28T14:27:12.601Z,99.90
2019-05-28T14:29:42.819Z,99.90
2019-05-28T14:32:13.278Z,99.90
2019-05-28T14:34:43.405Z,99.90
2019-05-28T14:37:13.680Z,99.90
2019-05-28T14:39:44.021Z,99.90
2019-05-28T14:42:17.487Z,99.90
2019-05-28T14:44:46.724Z,99.90
2019-05-28T14:47:43.512Z,99.90
2019-05-28T14:50:21.370Z,99.90
2019-05-28T14:52:52.836Z,99.90
2019-05-28T14:55:26.119Z,99.90
2019-05-28T14:58:05.193Z,99.90
2019-05-28T15:00:53.027Z,99.90
2019-05-28T15:03:46.095Z,99.90
2019-05-28T15:06:22.143Z,99.90
2019-05-28T15:08:54.383Z,99.90
2019-05-28T15:11:27.446Z,99.90
2019-05-28T15:14:03.358Z,99.90
2019-05-28T15:16:40.509Z,99.90
2019-05-28T15:19:25.697Z,99.90
2019-05-28T15:22:19.442Z,99.90
2019-05-28T15:24:56.245Z,99.90
2019-05-28T15:27:39.264Z,99.90
2019-05-28T15:30:18.919Z,99.90
2019-05-28T15:32:50.368Z,99.90
2019-05-28T15:35:21.667Z,99.90
2019-05-28T15:37:58.278Z,99.90
2019-05-28T15:40:45.043Z,99.90
2019-05-28T15:43:22.678Z,99.90
2019-05-28T15:45:55.309Z,99.90
2019-05-28T15:48:30.290Z,99.90
2019-05-28T15:51:06.810Z,99.90
2019-05-28T15:53:41.246Z,99.90
2019-05-28T15:56:11.950Z,99.90
2019-05-28T15:58:44.556Z,99.90
2019-05-28T16:01:14.792Z,99.90
2019-05-28T16:03:48.605Z,99.90
2019-05-28T16:06:28.170Z,99.90
2019-05-28T16:09:13.144Z,99.90
2019-05-28T16:11:49.468Z,99.90
2019-05-28T16:14:25.282Z,99.90
2019-05-28T16:17:00.149Z,99.90
2019-05-28T16:19:31.095Z,99.90
2019-05-28T16:22:01.349Z,99.90
2019-05-28T16:24:35.524Z,99.90
2019-05-28T16:27:12.222Z,99.90
2019-05-28T16:29:44.289Z,99.90
2019-05-28T16:32:14.549Z,99.90
2019-05-28T16:34:44.815Z,99.90
2019-05-28T16:37:15.117Z,99.90
2019-05-28T16:39:47.527Z,99.90
2019-05-28T16:42:17.435Z,99.90
2019-05-28T16:44:47.852Z,99.90
2019-05-28T16:47:19.828Z,99.90
2019-05-28T16:49:50.194Z,99.90
2019-05-28T16:52:20.514Z,99.90
2019-05-28T16:54:50.985Z,99.90
2019-05-28T16:57:21.374Z,99.90
2019-05-28T16:59:52.709Z,99.90
2019-05-28T17:02:23.207Z,99.90
2019-05-28T17:04:53.335Z,99.90
2019-05-28T17:07:23.540Z,99.90
2019-05-28T17:09:53.990Z,99.90
2019-05-28T17:12:24.618Z,99.90
2019-05-28T17:14:54.929Z,99.90
2019-05-28T17:17:26.982Z,99.90
2019-05-28T17:19:57.214Z,99.90
2019-05-28T17:22:27.462Z,99.90
2019-05-28T17:24:57.740Z,99.90
2019-05-28T17:27:28.258Z,99.90
2019-05-28T17:30:15.944Z,99.90
2019-05-28T17:32:30.742Z,99.90
2019-05-28T17:35:01.357Z,99.90
2019-05-28T17:37:32.787Z,99.90
2019-05-28T17:40:03.419Z,99.90
2019-05-28T17:42:34.991Z,99.90
2019-05-28T17:45:06.582Z,99.90
2019-05-28T17:47:43.107Z,99.90
2019-05-28T17:50:09.771Z,99.90
2019-05-28T17:52:41.172Z,99.90
2019-05-28T17:55:11.869Z,99.90
2019-05-28T17:57:42.297Z,99.90
2019-05-28T18:00:14.309Z,99.90
2019-05-28T18:03:16.934Z,99.90
2019-05-28T18:05:50.885Z,99.90
2019-05-28T18:08:21.810Z,99.90
2019-05-28T18:11:03.714Z,99.90
2019-05-28T18:13:28.173Z,99.90
2019-05-28T18:15:56.069Z,99.90
2019-05-28T18:18:26.513Z,99.90
2019-05-28T18:20:56.948Z,99.90
2019-05-28T18:23:27.377Z,99.90
2019-05-28T18:25:57.778Z,99.90
2019-05-28T18:28:28.163Z,99.90
2019-05-28T18:30:58.262Z,99.90
2019-05-28T18:33:28.661Z,99.90
2019-05-28T18:36:03.961Z,99.90
2019-05-28T18:38:34.315Z,99.90
2019-05-28T18:41:20.620Z,99.90
2019-05-28T18:43:36.772Z,99.90
2019-05-28T18:46:07.122Z,99.90
2019-05-28T18:48:38.423Z,99.90
2019-05-28T18:51:08.891Z,99.90
2019-05-28T18:53:39.169Z,99.90
2019-05-28T18:56:17.497Z,99.90
2019-05-28T18:58:41.890Z,99.90
2019-05-28T19:01:17.541Z,99.90
2019-05-28T19:03:50.448Z,99.90
2019-05-28T19:06:20.598Z,99.90
2019-05-28T19:08:51.792Z,99.90
2019-05-28T19:11:37.481Z,99.90
2019-05-28T19:13:57.626Z,99.90
2019-05-28T19:16:28.014Z,99.90
2019-05-28T19:18:58.440Z,99.90
2019-05-28T19:21:29.678Z,99.90
2019-05-28T19:24:03.196Z,99.90
2019-05-28T19:26:34.535Z,99.90
2019-05-28T19:29:05.055Z,99.90
2019-05-28T19:31:35.412Z,99.90
2019-05-28T19:34:09.185Z,99.90
2019-05-28T19:36:40.197Z,99.90
2019-05-28T19:39:10.578Z,99.90
2019-05-28T19:41:53.734Z,99.90
2019-05-28T19:44:12.922Z,99.90
2019-05-28T19:46:43.188Z,99.90
2019-05-28T19:49:29.947Z,99.90
2019-05-28T19:52:00.455Z,99.90
2019-05-28T19:54:30.905Z,99.90
2019-05-28T19:57:02.449Z,99.90
2019-05-28T19:59:34.028Z,99.90
2019-05-28T20:02:04.583Z,99.90
2019-05-28T20:04:48.798Z,99.90
2019-05-28T20:07:19.801Z,99.90
2019-05-28T20:09:50.368Z,99.90
2019-05-28T20:12:21.202Z,99.90
2019-05-28T20:14:51.505Z,99.90
2019-05-28T20:17:21.991Z,99.90
2019-05-28T20:19:52.968Z,99.90
2019-05-28T20:22:24.068Z,99.90
2019-05-28T20:24:54.511Z,99.90
2019-05-28T20:27:24.805Z,99.90
2019-05-28T20:29:55.761Z,99.90
2019-05-28T20:32:27.321Z,99.90
2019-05-28T20:34:57.605Z,99.90
2019-05-28T20:37:28.006Z,99.90
2019-05-28T20:39:59.803Z,99.90
2019-05-28T20:42:30.451Z,99.90
2019-05-28T20:45:00.705Z,99.90
2019-05-28T20:47:31.044Z,99.90
2019-05-28T20:50:01.290Z,99.90
2019-05-28T20:52:31.460Z,99.90
2019-05-28T20:55:01.855Z,99.90
2019-05-28T20:57:32.199Z,99.90
2019-05-28T21:00:02.453Z,99.90
2019-05-28T21:02:34.226Z,99.90
2019-05-28T21:05:05.399Z,99.90
2019-05-28T21:07:36.691Z,99.90
2019-05-28T21:10:07.292Z,99.90
2019-05-28T21:12:43.946Z,99.90
2019-05-28T21:15:15.729Z,99.90
2019-05-28T21:17:43.943Z,99.90
2019-05-28T21:20:14.828Z,99.90
2019-05-28T21:22:45.034Z,99.90
2019-05-28T21:25:19.611Z,99.90
2019-05-28T21:27:52.157Z,99.90
2019-05-28T21:30:22.707Z,99.90
2019-05-28T21:32:53.278Z,99.90
2019-05-28T21:35:23.809Z,99.90
2019-05-28T21:37:55.071Z,99.90
2019-05-28T21:40:25.560Z,99.90
2019-05-28T21:43:01.302Z,99.90
2019-05-28T21:45:28.484Z,99.90
2019-05-28T21:48:00.732Z,99.90
2019-05-28T21:50:31.347Z,99.90
2019-05-28T21:53:01.504Z,99.90
2019-05-28T21:55:31.540Z,99.90
2019-05-28T21:58:03.937Z,99.90
2019-05-28T22:00:45.443Z,99.90
2019-05-28T22:03:17.726Z,99.90
2019-05-28T22:05:47.897Z,99.90
2019-05-28T22:08:18.044Z,99.90
2019-05-28T22:10:48.122Z,99.90
2019-05-28T22:13:22.416Z,99.90
2019-05-28T22:15:50.281Z,99.90
2019-05-28T22:18:20.351Z,99.90
2019-05-28T22:20:50.542Z,99.90
2019-05-28T22:23:20.680Z,99.90
2019-05-28T22:25:50.788Z,99.90
2019-05-28T22:28:20.952Z,99.90
2019-05-28T22:30:50.991Z,99.90
2019-05-28T22:33:22.357Z,99.90
2019-05-28T22:35:52.551Z,99.90
2019-05-28T22:38:22.949Z,99.90
2019-05-28T22:40:53.001Z,99.90
2019-05-28T22:43:31.562Z,99.90
2019-05-28T22:45:55.389Z,99.90
2019-05-28T22:48:25.541Z,99.90
2019-05-28T22:50:55.774Z,99.90
2019-05-28T22:53:25.806Z,99.90
2019-05-28T22:55:56.014Z,99.90
2019-05-28T22:58:26.152Z,99.90
2019-05-28T23:00:56.295Z,99.90
2019-05-28T23:03:26.337Z,99.90
2019-05-28T23:05:56.327Z,99.90
2019-05-28T23:08:26.453Z,99.90
2019-05-28T23:10:57.051Z,99.90
2019-05-28T23:13:27.688Z,99.90
2019-05-28T23:15:57.745Z,99.90
2019-05-28T23:18:27.853Z,99.90
2019-05-28T23:20:58.089Z,99.90
2019-05-28T23:23:28.136Z,99.90
2019-05-28T23:25:58.430Z,99.90
2019-05-28T23:28:28.460Z,99.90
2019-05-28T23:30:58.501Z,99.90
2019-05-28T23:33:28.743Z,99.90
2019-05-28T23:35:58.997Z,99.90
2019-05-28T23:38:28.908Z,99.90
2019-05-28T23:40:59.001Z,99.90
2019-05-28T23:43:29.258Z,99.90
2019-05-28T23:46:00.641Z,99.90
2019-05-28T23:48:30.882Z,99.90
2019-05-28T23:51:01.133Z,99.90
2019-05-28T23:53:31.207Z,99.90
2019-05-28T23:56:01.277Z,99.90
2019-05-28T23:58:31.417Z,99.90
